Time;durP1;ratioP1;P1;durP2;ratioP2;P2;SDS_P1;SDS_P2;PMS_P1;PMS_P2;Temp;Humidity;BMP_temperature;BMP_pressure;BME280_temperature;BME280_humidity;BME280_pressure;Samples;Min_cycle;Max_cycle;Signal;HPM_P1;HPM_P2
2022/07/30 00:01:35;;;;;;;5.50;1.90;;;;;;;;;;110420;1246;34352;-36
2022/07/30 00:04:08;;;;;;;5.10;2.00;;;;;;;;;;110483;1254;34834;-36
2022/07/30 00:06:39;;;;;;;;;;;;;;;;;;110528;1248;34725;-36
2022/07/30 00:09:12;;;;;;;5.20;2.40;;;;;;;;;;110478;1247;34760;-39
2022/07/30 00:11:44;;;;;;;4.50;2.10;;;;;;;;;;110426;1247;33643;-37
2022/07/30 00:14:19;;;;;;;5.80;2.40;;;;;;;;;;110419;1254;33856;-35
2022/07/30 00:16:57;;;;;;;5.20;2.60;;;;;;;;;;110422;1254;33970;-38
2022/07/30 00:19:30;;;;;;;6.80;3.00;;;;;;;;;;110425;1246;34352;-37
2022/07/30 00:22:01;;;;;;;;;;;;;;;;;;110465;1248;34460;-37
2022/07/30 00:24:37;;;;;;;6.10;2.80;;;;;;;;;;110503;1247;33055;-37
2022/07/30 00:27:09;;;;;;;5.10;2.70;;;;;;;;;;110411;1254;34684;-35
2022/07/30 00:29:42;;;;;;;6.30;2.90;;;;;;;;;;110434;1254;33122;-38
2022/07/30 00:32:14;;;;;;;5.60;2.60;;;;;;;;;;110472;1254;34028;-37
2022/07/30 00:34:46;;;;;;;6.80;3.20;;;;;;;;;;110447;1254;32958;-37
2022/07/30 00:37:20;;;;;;;7.40;2.90;;;;;;;;;;110436;1247;32696;-37
2022/07/30 00:39:53;;;;;;;7.20;3.40;;;;;;;;;;110443;1246;33391;-37
2022/07/30 00:42:26;;;;;;;7.40;3.50;;;;;;;;;;110434;1253;33505;-37
2022/07/30 00:44:59;;;;;;;6.40;3.10;;;;;;;;;;110456;1251;35273;-36
2022/07/30 00:47:30;;;;;;;;;;;;;;;;;;110463;1254;34735;-37
2022/07/30 00:50:03;;;;;;;6.70;3.00;;;;;;;;;;110464;1254;32606;-37
2022/07/30 00:52:40;;;;;;;8.40;3.60;;;;;;;;;;110470;1246;33323;-37
2022/07/30 00:55:15;;;;;;;6.30;3.30;;;;;;;;;;110450;1247;34818;-37
2022/07/30 00:57:51;;;;;;;6.20;3.60;;;;;;;;;;110486;1254;32109;-36
2022/07/30 01:00:27;;;;;;;7.10;3.50;;;;;;;;;;110439;1246;32966;-37
2022/07/30 01:03:05;;;;;;;7.50;3.50;;;;;;;;;;110475;1254;33062;-37
2022/07/30 01:05:38;;;;;;;7.60;3.50;;;;;;;;;;110380;1254;33767;-36
2022/07/30 01:08:13;;;;;;;7.90;3.70;;;;;;;;;;110469;1254;33877;-37
2022/07/30 01:10:47;;;;;;;7.60;4.20;;;;;;;;;;110429;1253;34520;-37
2022/07/30 01:13:22;;;;;;;8.70;4.20;;;;;;;;;;110466;1254;33354;-36
2022/07/30 01:15:59;;;;;;;7.60;3.60;;;;;;;;;;110465;1247;34664;-38
2022/07/30 01:21:28;;;;;;;8.40;4.20;;;;;;;;;;110446;1254;35099;-37
2022/07/30 01:24:12;;;;;;;7.50;3.60;;;;;;;;;;110468;1254;34185;-36
2022/07/30 01:26:47;;;;;;;7.20;3.60;;;;;;;;;;110472;1254;34197;-37
2022/07/30 01:29:23;;;;;;;7.90;4.20;;;;;;;;;;110474;1254;34627;-37
2022/07/30 01:31:58;;;;;;;7.90;3.80;;;;;;;;;;110450;1246;33028;-36
2022/07/30 01:34:34;;;;;;;8.80;3.90;;;;;;;;;;110475;1246;34640;-37
2022/07/30 01:37:09;;;;;;;8.50;4.10;;;;;;;;;;110453;1254;34752;-37
2022/07/30 01:39:47;;;;;;;7.40;4.00;;;;;;;;;;110484;1247;34311;-38
2022/07/30 01:42:22;;;;;;;8.20;4.00;;;;;;;;;;110472;1246;34267;-37
2022/07/30 01:44:55;;;;;;;8.80;4.00;;;;;;;;;;110472;1254;34611;-36
2022/07/30 01:47:29;;;;;;;7.80;3.60;;;;;;;;;;110448;1248;34278;-37
2022/07/30 01:50:07;;;;;;;10.00;3.80;;;;;;;;;;110503;1246;33957;-37
2022/07/30 01:52:42;;;;;;;8.10;3.90;;;;;;;;;;110489;1254;33854;-37
2022/07/30 01:55:17;;;;;;;7.60;3.60;;;;;;;;;;110482;1248;32235;-37
2022/07/30 01:57:52;;;;;;;7.10;3.60;;;;;;;;;;110491;1254;34597;-37
2022/07/30 02:00:29;;;;;;;7.10;3.50;;;;;;;;;;110446;1246;33942;-37
2022/07/30 02:03:02;;;;;;;7.10;4.00;;;;;;;;;;110473;1247;33909;-37
2022/07/30 02:05:38;;;;;;;7.80;3.90;;;;;;;;;;110432;1254;33070;-37
2022/07/30 02:08:16;;;;;;;7.60;3.50;;;;;;;;;;110456;1254;34134;-37
2022/07/30 02:10:51;;;;;;;7.80;3.90;;;;;;;;;;110452;1254;34623;-38
2022/07/30 02:13:28;;;;;;;6.90;3.50;;;;;;;;;;110493;1253;33980;-39
2022/07/30 02:16:06;;;;;;;6.60;3.40;;;;;;;;;;110499;1246;34528;-38
2022/07/30 02:18:44;;;;;;;7.20;3.40;;;;;;;;;;110505;1246;33004;-37
2022/07/30 02:21:18;;;;;;;7.00;3.30;;;;;;;;;;110459;1254;34668;-36
2022/07/30 02:23:52;;;;;;;7.40;3.10;;;;;;;;;;110474;1254;34521;-37
2022/07/30 02:26:25;;;;;;;7.30;3.00;;;;;;;;;;110437;1254;34796;-38
2022/07/30 02:29:01;;;;;;;5.80;3.00;;;;;;;;;;110495;1247;33515;-38
2022/07/30 02:31:37;;;;;;;6.10;2.90;;;;;;;;;;110381;1247;34819;-37
2022/07/30 02:34:10;;;;;;;6.80;2.90;;;;;;;;;;110486;1246;33483;-38
2022/07/30 02:36:44;;;;;;;6.40;2.90;;;;;;;;;;110456;1254;34919;-35
2022/07/30 02:39:17;;;;;;;5.80;3.10;;;;;;;;;;110481;1247;33035;-36
2022/07/30 02:41:51;;;;;;;5.70;2.80;;;;;;;;;;110479;1246;33004;-37
2022/07/30 02:44:25;;;;;;;6.10;2.80;;;;;;;;;;110457;1248;33388;-35
2022/07/30 02:47:01;;;;;;;5.80;3.00;;;;;;;;;;110463;1254;34587;-35
2022/07/30 02:49:38;;;;;;;6.40;2.90;;;;;;;;;;110492;1254;32978;-37
2022/07/30 02:52:12;;;;;;;6.00;2.80;;;;;;;;;;110486;1247;33066;-37
2022/07/30 02:54:45;;;;;;;5.50;2.40;;;;;;;;;;110535;1254;33029;-36
2022/07/30 02:57:19;;;;;;;;;;;;;;;;;;110505;1247;34449;-37
2022/07/30 02:59:55;;;;;;;5.30;2.60;;;;;;;;;;110475;1254;34596;-35
2022/07/30 03:02:28;;;;;;;5.90;3.10;;;;;;;;;;110484;1254;33115;-36
2022/07/30 03:05:04;;;;;;;4.90;2.40;;;;;;;;;;110478;1253;32990;-37
2022/07/30 03:07:38;;;;;;;5.50;2.50;;;;;;;;;;110465;1246;33746;-37
2022/07/30 03:10:13;;;;;;;5.40;2.80;;;;;;;;;;110515;1246;32772;-38
2022/07/30 03:12:47;;;;;;;5.30;2.40;;;;;;;;;;110511;1254;33036;-37
2022/07/30 03:15:23;;;;;;;5.10;2.40;;;;;;;;;;110458;1246;35206;-37
2022/07/30 03:17:56;;;;;;;5.70;2.80;;;;;;;;;;110473;1254;34012;-37
2022/07/30 03:20:31;;;;;;;5.60;2.90;;;;;;;;;;110529;1254;33489;-38
2022/07/30 03:23:06;;;;;;;5.40;2.60;;;;;;;;;;110495;1246;33840;-35
2022/07/30 03:25:39;;;;;;;5.90;2.80;;;;;;;;;;110485;1248;33124;-36
2022/07/30 03:28:12;;;;;;;5.80;3.00;;;;;;;;;;110473;1246;34606;-37
2022/07/30 03:30:48;;;;;;;5.40;2.70;;;;;;;;;;110495;1253;34418;-37
2022/07/30 03:33:20;;;;;;;5.80;2.60;;;;;;;;;;110488;1253;34516;-37
2022/07/30 03:35:54;;;;;;;6.40;3.10;;;;;;;;;;110492;1247;33887;-35
2022/07/30 03:38:28;;;;;;;6.10;3.10;;;;;;;;;;110458;1253;34543;-35
2022/07/30 03:41:03;;;;;;;8.10;3.50;;;;;;;;;;110462;1253;34953;-38
2022/07/30 03:43:41;;;;;;;7.30;3.40;;;;;;;;;;110449;1245;33049;-37
2022/07/30 03:46:15;;;;;;;6.00;3.20;;;;;;;;;;110501;1253;34944;-38
2022/07/30 03:48:48;;;;;;;5.30;2.70;;;;;;;;;;110524;1246;34621;-37
2022/07/30 03:51:19;;;;;;;;;;;;;;;;;;110481;1246;34061;-37
2022/07/30 03:53:52;;;;;;;5.90;2.90;;;;;;;;;;110463;1253;34924;-38
2022/07/30 03:56:25;;;;;;;5.30;2.90;;;;;;;;;;110517;1246;33038;-37
2022/07/30 03:58:57;;;;;;;7.40;3.30;;;;;;;;;;110509;1248;33464;-37
2022/07/30 04:01:30;;;;;;;7.10;3.10;;;;;;;;;;110500;1253;33893;-36
2022/07/30 04:04:09;;;;;;;6.30;3.40;;;;;;;;;;110540;1253;34742;-37
2022/07/30 04:06:43;;;;;;;6.70;3.10;;;;;;;;;;110549;1253;34297;-35
2022/07/30 04:09:15;;;;;;;6.70;3.00;;;;;;;;;;110512;1253;34729;-37
2022/07/30 04:11:48;;;;;;;5.80;3.30;;;;;;;;;;110517;1246;33105;-37
2022/07/30 04:14:24;;;;;;;6.10;3.00;;;;;;;;;;110531;1248;34370;-37
2022/07/30 04:17:02;;;;;;;5.40;3.00;;;;;;;;;;110500;1253;33557;-37
2022/07/30 04:19:38;;;;;;;5.30;2.80;;;;;;;;;;110506;1253;34669;-37
2022/07/30 04:22:14;;;;;;;7.70;3.00;;;;;;;;;;110546;1246;33375;-37
2022/07/30 04:24:48;;;;;;;5.70;2.70;;;;;;;;;;110586;1246;33976;-37
2022/07/30 04:27:20;;;;;;;6.10;2.90;;;;;;;;;;110572;1245;32987;-37
2022/07/30 04:29:53;;;;;;;6.30;3.00;;;;;;;;;;110577;1246;34723;-37
2022/07/30 04:32:26;;;;;;;6.70;2.80;;;;;;;;;;110524;1253;34358;-37
2022/07/30 04:34:58;;;;;;;6.50;3.10;;;;;;;;;;110511;1253;33954;-38
2022/07/30 04:37:31;;;;;;;6.60;3.10;;;;;;;;;;110509;1247;34285;-39
2022/07/30 04:40:04;;;;;;;5.20;3.00;;;;;;;;;;110488;1247;33787;-36
2022/07/30 04:42:36;;;;;;;5.70;2.80;;;;;;;;;;110530;1245;34729;-37
2022/07/30 04:45:11;;;;;;;6.50;2.50;;;;;;;;;;110492;1253;34498;-36
2022/07/30 04:47:46;;;;;;;5.40;2.60;;;;;;;;;;110505;1246;32930;-38
2022/07/30 04:50:19;;;;;;;5.40;3.00;;;;;;;;;;110505;1246;33022;-36
2022/07/30 04:52:53;;;;;;;;;;;;;;;;;;110540;1245;34643;-37
2022/07/30 04:55:26;;;;;;;5.10;2.30;;;;;;;;;;110540;1246;34177;-38
2022/07/30 04:58:01;;;;;;;5.40;2.60;;;;;;;;;;110540;1253;34466;-35
2022/07/30 05:00:37;;;;;;;5.50;2.80;;;;;;;;;;110496;1246;32931;-37
2022/07/30 05:03:12;;;;;;;6.40;2.70;;;;;;;;;;110533;1245;34593;-37
2022/07/30 05:05:45;;;;;;;4.90;2.60;;;;;;;;;;110526;1245;33222;-37
2022/07/30 05:08:18;;;;;;;5.40;2.50;;;;;;;;;;110539;1247;34389;-36
2022/07/30 05:10:51;;;;;;;5.40;2.50;;;;;;;;;;110500;1253;34947;-37
2022/07/30 05:13:26;;;;;;;5.20;2.40;;;;;;;;;;110527;1253;32645;-36
2022/07/30 05:16:01;;;;;;;4.90;2.40;;;;;;;;;;110538;1253;33933;-35
2022/07/30 05:18:36;;;;;;;6.10;2.50;;;;;;;;;;110521;1246;33326;-37
2022/07/30 05:21:09;;;;;;;4.70;2.30;;;;;;;;;;110518;1253;32957;-36
2022/07/30 05:23:41;;;;;;;4.40;2.20;;;;;;;;;;110485;1246;33379;-38
2022/07/30 05:26:13;;;;;;;6.10;2.50;;;;;;;;;;110536;1253;34542;-36
2022/07/30 05:28:50;;;;;;;6.10;2.70;;;;;;;;;;110538;1248;33902;-36
2022/07/30 05:31:23;;;;;;;4.90;2.60;;;;;;;;;;110259;1245;338538;-37
2022/07/30 05:33:55;;;;;;;5.40;2.00;;;;;;;;;;110517;1247;34629;-37
2022/07/30 05:36:33;;;;;;;4.60;2.40;;;;;;;;;;110535;1253;33122;-37
2022/07/30 05:39:07;;;;;;;5.70;2.30;;;;;;;;;;110556;1253;34658;-38
2022/07/30 05:41:40;;;;;;;5.60;2.60;;;;;;;;;;110531;1246;34609;-36
2022/07/30 05:44:15;;;;;;;4.90;2.40;;;;;;;;;;110544;1246;33819;-37
2022/07/30 05:46:48;;;;;;;4.70;2.20;;;;;;;;;;110517;1246;33854;-38
2022/07/30 05:49:22;;;;;;;5.40;2.40;;;;;;;;;;110529;1253;34444;-36
2022/07/30 05:51:55;;;;;;;6.40;2.60;;;;;;;;;;110532;1253;34774;-38
2022/07/30 05:54:28;;;;;;;5.80;2.40;;;;;;;;;;110517;1248;32981;-37
2022/07/30 05:57:03;;;;;;;4.70;2.30;;;;;;;;;;110524;1253;34668;-37
2022/07/30 05:59:35;;;;;;;6.70;2.30;;;;;;;;;;110502;1247;33690;-35
2022/07/30 06:02:10;;;;;;;4.50;2.40;;;;;;;;;;110524;1253;34794;-37
2022/07/30 06:04:45;;;;;;;4.80;2.40;;;;;;;;;;110539;1253;33037;-37
2022/07/30 06:07:17;;;;;;;4.50;2.20;;;;;;;;;;110570;1245;34586;-37
2022/07/30 06:09:50;;;;;;;4.50;2.20;;;;;;;;;;110513;1253;34337;-37
2022/07/30 06:12:22;;;;;;;4.90;2.50;;;;;;;;;;110544;1247;33160;-37
2022/07/30 06:14:55;;;;;;;4.80;2.50;;;;;;;;;;110512;1253;33093;-37
2022/07/30 06:17:28;;;;;;;6.20;2.70;;;;;;;;;;110531;1253;35117;-37
2022/07/30 06:20:03;;;;;;;5.00;2.20;;;;;;;;;;110552;1246;32718;-38
2022/07/30 06:22:35;;;;;;;6.40;2.90;;;;;;;;;;110550;1246;33889;-38
2022/07/30 06:25:10;;;;;;;5.80;2.70;;;;;;;;;;110551;1245;33366;-37
2022/07/30 06:27:43;;;;;;;5.90;2.60;;;;;;;;;;110586;1253;33823;-37
2022/07/30 06:30:16;;;;;;;5.30;2.60;;;;;;;;;;110518;1253;34352;-37
2022/07/30 06:32:47;;;;;;;;;;;;;;;;;;110594;1245;34301;-37
2022/07/30 06:35:22;;;;;;;5.80;2.90;;;;;;;;;;110546;1247;34252;-37
2022/07/30 06:37:55;;;;;;;6.90;2.90;;;;;;;;;;110558;1253;34690;-36
2022/07/30 06:40:28;;;;;;;6.10;3.00;;;;;;;;;;110500;1253;33910;-38
2022/07/30 06:43:01;;;;;;;5.50;2.70;;;;;;;;;;110511;1253;34877;-35
2022/07/30 06:45:34;;;;;;;5.80;2.60;;;;;;;;;;110552;1246;33373;-37
2022/07/30 06:48:08;;;;;;;6.70;2.90;;;;;;;;;;110561;1247;33188;-37
2022/07/30 06:50:40;;;;;;;6.50;2.70;;;;;;;;;;110562;1253;34614;-40
2022/07/30 06:53:13;;;;;;;6.00;2.90;;;;;;;;;;110560;1253;33206;-35
2022/07/30 06:55:51;;;;;;;4.90;2.80;;;;;;;;;;110548;1253;32674;-37
2022/07/30 06:58:28;;;;;;;7.00;3.40;;;;;;;;;;110548;1246;33284;-35
2022/07/30 07:01:06;;;;;;;7.40;3.30;;;;;;;;;;110526;1248;34160;-38
2022/07/30 07:03:40;;;;;;;7.20;3.20;;;;;;;;;;110546;1253;33724;-37
2022/07/30 07:06:16;;;;;;;6.40;3.40;;;;;;;;;;110604;1253;34526;-35
2022/07/30 07:08:48;;;;;;;7.00;3.10;;;;;;;;;;110532;1246;33220;-38
2022/07/30 07:11:22;;;;;;;6.30;3.40;;;;;;;;;;110319;1249;34642;-35
2022/07/30 07:13:54;;;;;;;7.90;3.50;;;;;;;;;;110571;1245;33652;-36
2022/07/30 07:16:26;;;;;;;8.30;3.90;;;;;;;;;;110547;1246;33371;-37
2022/07/30 07:19:01;;;;;;;7.40;3.90;;;;;;;;;;110578;1246;34219;-36
2022/07/30 07:21:33;;;;;;;7.30;3.40;;;;;;;;;;110605;1247;33336;-38
2022/07/30 07:24:07;;;;;;;8.20;3.90;;;;;;;;;;110589;1253;35050;-37
2022/07/30 07:26:40;;;;;;;8.70;4.00;;;;;;;;;;110602;1246;34399;-38
2022/07/30 07:29:15;;;;;;;6.20;3.40;;;;;;;;;;110576;1245;34357;-37
2022/07/30 07:31:52;;;;;;;6.70;3.60;;;;;;;;;;110558;1253;34879;-37
2022/07/30 07:34:30;;;;;;;7.30;3.90;;;;;;;;;;110544;1253;33980;-36
2022/07/30 07:37:05;;;;;;;7.70;3.90;;;;;;;;;;110584;1250;33847;-37
2022/07/30 07:39:38;;;;;;;9.20;4.50;;;;;;;;;;110540;1247;34475;-37
2022/07/30 07:42:11;;;;;;;7.70;4.00;;;;;;;;;;110575;1248;32789;-38
2022/07/30 07:44:43;;;;;;;9.90;5.60;;;;;;;;;;110336;1253;33727;-36
2022/07/30 07:47:19;;;;;;;7.20;4.00;;;;;;;;;;110531;1253;34663;-38
2022/07/30 07:49:51;;;;;;;6.90;3.80;;;;;;;;;;110555;1253;34628;-37
2022/07/30 07:52:25;;;;;;;8.80;4.30;;;;;;;;;;110551;1253;34444;-37
2022/07/30 07:54:59;;;;;;;8.60;4.30;;;;;;;;;;110343;1249;34041;-36
2022/07/30 07:57:40;;;;;;;8.40;3.90;;;;;;;;;;110534;1253;34799;-37
2022/07/30 08:00:17;;;;;;;8.50;4.10;;;;;;;;;;110487;1253;32862;-37
2022/07/30 08:02:50;;;;;;;8.10;4.50;;;;;;;;;;110575;1247;32789;-37
2022/07/30 08:05:23;;;;;;;9.20;5.00;;;;;;;;;;110615;1247;34512;-37
2022/07/30 08:07:55;;;;;;;8.70;4.80;;;;;;;;;;110554;1247;33993;-36
2022/07/30 08:10:31;;;;;;;9.40;5.30;;;;;;;;;;110549;1254;34449;-37
2022/07/30 08:13:04;;;;;;;9.50;5.40;;;;;;;;;;110576;1254;34043;-38
2022/07/30 08:15:36;;;;;;;9.00;4.90;;;;;;;;;;110450;1254;34557;-37
2022/07/30 08:18:09;;;;;;;8.10;4.70;;;;;;;;;;110448;1250;34485;-37
2022/07/30 08:20:44;;;;;;;9.70;5.20;;;;;;;;;;110438;1255;34051;-37
2022/07/30 08:23:17;;;;;;;10.00;5.00;;;;;;;;;;110410;1254;33059;-38
2022/07/30 08:25:48;;;;;;;;;;;;;;;;;;110446;1247;32889;-37
2022/07/30 08:28:20;;;;;;;9.30;5.10;;;;;;;;;;110430;1254;33995;-38
2022/07/30 08:30:52;;;;;;;9.90;4.40;;;;;;;;;;110403;1250;33137;-37
2022/07/30 08:33:24;;;;;;;8.80;5.20;;;;;;;;;;110417;1254;34452;-36
2022/07/30 08:35:57;;;;;;;10.10;4.70;;;;;;;;;;110446;1254;34442;-37
2022/07/30 08:38:29;;;;;;;9.10;4.80;;;;;;;;;;110425;1254;33636;-38
2022/07/30 08:41:02;;;;;;;9.80;5.10;;;;;;;;;;110420;1254;31312;-37
2022/07/30 08:43:34;;;;;;;10.80;5.40;;;;;;;;;;110415;1254;34583;-37
2022/07/30 08:46:10;;;;;;;9.50;5.10;;;;;;;;;;110436;1254;33692;-37
2022/07/30 08:48:44;;;;;;;8.50;4.90;;;;;;;;;;110482;1254;33567;-37
2022/07/30 08:51:20;;;;;;;9.60;5.30;;;;;;;;;;110430;1247;33024;-37
2022/07/30 08:53:56;;;;;;;9.10;4.70;;;;;;;;;;110451;1246;34422;-37
2022/07/30 08:56:29;;;;;;;7.70;4.80;;;;;;;;;;110427;1254;32561;-36
2022/07/30 08:59:03;;;;;;;9.60;4.50;;;;;;;;;;110410;1254;34210;-36
2022/07/30 09:01:35;;;;;;;9.00;4.80;;;;;;;;;;110396;1254;34781;-37
2022/07/30 09:04:13;;;;;;;8.40;4.70;;;;;;;;;;110417;1254;34726;-38
2022/07/30 09:06:48;;;;;;;8.70;4.60;;;;;;;;;;110445;1254;33775;-35
2022/07/30 09:09:24;;;;;;;8.50;4.70;;;;;;;;;;110418;1248;34244;-35
2022/07/30 09:11:57;;;;;;;8.20;4.40;;;;;;;;;;110429;1247;33539;-37
2022/07/30 09:14:28;;;;;;;8.90;5.20;;;;;;;;;;110289;1256;32862;-39
2022/07/30 09:17:00;;;;;;;7.70;4.50;;;;;;;;;;110455;1254;34099;-38
2022/07/30 09:19:32;;;;;;;11.30;4.90;;;;;;;;;;110466;1247;34687;-41
2022/07/30 09:22:05;;;;;;;12.10;4.60;;;;;;;;;;110465;1247;34459;-40
2022/07/30 09:24:44;;;;;;;7.40;3.80;;;;;;;;;;110650;1253;32469;-40
2022/07/30 09:27:18;;;;;;;8.70;5.60;;;;;;;;;;110633;1253;34670;-40
2022/07/30 09:29:58;;;;;;;7.60;4.60;;;;;;;;;;110638;1253;34285;-43
2022/07/30 09:32:51;;;;;;;10.00;5.30;;;;;;;;;;110579;1247;34519;-39
2022/07/30 09:35:24;;;;;;;10.70;4.80;;;;;;;;;;110387;1250;33793;-38
2022/07/30 09:38:03;;;;;;;10.30;5.40;;;;;;;;;;110394;1254;34596;-38
2022/07/30 09:40:36;;;;;;;10.10;5.20;;;;;;;;;;110420;1254;34607;-38
2022/07/30 09:43:11;;;;;;;8.70;4.70;;;;;;;;;;110413;1247;32920;-40
2022/07/30 09:45:57;;;;;;;9.10;5.00;;;;;;;;;;110422;1254;34870;-40
2022/07/30 09:48:29;;;;;;;8.80;4.90;;;;;;;;;;110446;1253;33881;-38
2022/07/30 09:51:02;;;;;;;10.80;5.30;;;;;;;;;;110444;1247;34713;-37
2022/07/30 09:53:34;;;;;;;8.00;4.90;;;;;;;;;;110431;1247;34501;-40
2022/07/30 09:56:26;;;;;;;8.10;4.70;;;;;;;;;;110389;1254;34989;-40
2022/07/30 09:58:58;;;;;;;8.60;5.10;;;;;;;;;;110441;1247;34539;-39
2022/07/30 10:01:51;;;;;;;8.70;4.50;;;;;;;;;;110481;1250;32971;-42
2022/07/30 10:04:28;;;;;;;9.40;4.60;;;;;;;;;;110458;1247;32901;-38
2022/07/30 10:07:02;;;;;;;7.70;4.50;;;;;;;;;;110479;1247;33445;-38
2022/07/30 10:09:36;;;;;;;10.10;4.70;;;;;;;;;;110443;1247;34419;-37
2022/07/30 10:12:11;;;;;;;7.20;4.20;;;;;;;;;;110283;1250;33189;-37
2022/07/30 10:14:46;;;;;;;8.70;5.00;;;;;;;;;;110463;1254;34327;-36
2022/07/30 10:17:18;;;;;;;9.00;4.70;;;;;;;;;;110436;1247;34689;-37
2022/07/30 10:19:54;;;;;;;8.60;4.30;;;;;;;;;;110423;1254;34485;-38
2022/07/30 10:22:27;;;;;;;9.10;4.60;;;;;;;;;;110422;1254;33312;-38
2022/07/30 10:25:00;;;;;;;9.00;4.50;;;;;;;;;;110435;1246;34310;-37
2022/07/30 10:27:35;;;;;;;8.30;4.90;;;;;;;;;;110410;1254;32872;-39
2022/07/30 10:30:10;;;;;;;8.80;4.80;;;;;;;;;;110480;1247;33928;-40
2022/07/30 10:32:44;;;;;;;8.20;4.60;;;;;;;;;;110431;1254;34908;-38
2022/07/30 10:35:22;;;;;;;8.30;4.70;;;;;;;;;;110321;1256;33815;-37
2022/07/30 10:37:59;;;;;;;6.90;4.10;;;;;;;;;;110433;1254;34455;-41
2022/07/30 10:40:36;;;;;;;8.20;5.00;;;;;;;;;;110417;1250;34625;-48
2022/07/30 10:43:41;;;;;;;7.40;4.30;;;;;;;;;;110460;1247;32965;-38
2022/07/30 10:46:22;;;;;;;8.90;4.50;;;;;;;;;;110420;1254;34839;-38
2022/07/30 10:48:56;;;;;;;7.60;4.20;;;;;;;;;;110417;1254;33032;-37
2022/07/30 10:54:46;;;;;;;7.70;4.50;;;;;;;;;;107149;1291;568350;-38
2022/07/30 10:57:20;;;;;;;8.50;4.50;;;;;;;;;;110358;1249;32895;-37
2022/07/30 11:00:17;;;;;;;8.20;4.00;;;;;;;;;;110324;1257;34510;-37
2022/07/30 11:03:22;;;;;;;7.60;4.10;;;;;;;;;;110321;1257;33524;-38
2022/07/30 11:06:27;;;;;;;7.00;3.80;;;;;;;;;;110319;1256;33070;-37
2022/07/30 11:08:59;;;;;;;7.40;4.10;;;;;;;;;;110226;1247;315317;-39
2022/07/30 11:11:50;;;;;;;6.00;3.40;;;;;;;;;;110499;1254;32905;-40
2022/07/30 11:14:22;;;;;;;8.80;3.90;;;;;;;;;;110505;1254;34568;-39
2022/07/30 11:17:06;;;;;;;7.10;4.20;;;;;;;;;;110480;1248;33665;-39
2022/07/30 11:20:12;;;;;;;6.90;3.50;;;;;;;;;;110486;1254;34605;-39
2022/07/30 11:22:45;;;;;;;7.00;4.10;;;;;;;;;;110473;1247;32945;-39
2022/07/30 11:25:40;;;;;;;;;;;;;;;;;;110464;1248;34123;-37
2022/07/30 11:28:35;;;;;;;6.60;3.30;;;;;;;;;;110483;1247;32621;-39
2022/07/30 11:31:31;;;;;;;7.80;3.90;;;;;;;;;;110487;1247;34476;-39
2022/07/30 11:34:28;;;;;;;5.90;3.60;;;;;;;;;;110478;1254;34224;-42
2022/07/30 11:37:17;;;;;;;6.20;3.60;;;;;;;;;;110475;1254;34808;-38
2022/07/30 11:40:12;;;;;;;5.90;3.90;;;;;;;;;;110483;1247;33224;-39
2022/07/30 11:42:45;;;;;;;7.00;3.50;;;;;;;;;;110486;1254;33551;-40
2022/07/30 11:45:28;;;;;;;6.10;3.40;;;;;;;;;;110503;1254;34749;-38
2022/07/30 11:48:01;;;;;;;4.90;3.10;;;;;;;;;;110510;1254;34571;-38
2022/07/30 11:50:35;;;;;;;6.30;3.40;;;;;;;;;;110517;1254;34721;-38
2022/07/30 11:53:08;;;;;;;6.00;3.60;;;;;;;;;;110533;1246;34683;-39
2022/07/30 11:55:44;;;;;;;7.40;3.80;;;;;;;;;;110513;1247;34632;-39
2022/07/30 11:58:28;;;;;;;6.10;3.50;;;;;;;;;;110517;1248;34119;-40
2022/07/30 12:01:02;;;;;;;5.30;3.20;;;;;;;;;;110501;1254;34582;-36
2022/07/30 12:03:35;;;;;;;5.70;3.60;;;;;;;;;;110478;1254;34665;-36
2022/07/30 12:06:12;;;;;;;5.70;3.40;;;;;;;;;;110443;1250;34533;-35
2022/07/30 12:08:46;;;;;;;6.20;3.70;;;;;;;;;;110445;1248;34035;-35
2022/07/30 12:11:19;;;;;;;5.90;3.90;;;;;;;;;;110434;1254;34457;-37
2022/07/30 12:13:58;;;;;;;;;;;;;;;;;;110473;1254;32884;-37
2022/07/30 12:16:32;;;;;;;5.90;4.10;;;;;;;;;;110450;1254;32512;-35
2022/07/30 12:19:08;;;;;;;5.90;4.10;;;;;;;;;;110470;1254;34674;-36
2022/07/30 12:21:40;;;;;;;5.50;3.60;;;;;;;;;;110469;1247;33860;-36
2022/07/30 12:24:12;;;;;;;6.00;4.10;;;;;;;;;;110447;1254;34549;-36
2022/07/30 12:26:44;;;;;;;6.00;3.80;;;;;;;;;;110461;1254;34500;-38
2022/07/30 12:29:17;;;;;;;7.10;4.10;;;;;;;;;;110651;1253;34596;-37
2022/07/30 12:31:48;;;;;;;6.30;3.60;;;;;;;;;;110677;1253;33730;-37
2022/07/30 12:34:25;;;;;;;6.80;3.90;;;;;;;;;;110676;1253;34547;-37
2022/07/30 12:37:08;;;;;;;6.30;3.90;;;;;;;;;;110691;1251;34575;-52
2022/07/30 12:39:39;;;;;;;;;;;;;;;;;;110661;1253;34106;-36
2022/07/30 12:42:19;;;;;;;6.80;3.20;;;;;;;;;;110619;1253;34067;-36
2022/07/30 12:44:54;;;;;;;5.90;3.40;;;;;;;;;;110630;1244;32818;-37
2022/07/30 12:47:28;;;;;;;6.70;3.80;;;;;;;;;;110626;1252;33142;-40
2022/07/30 12:50:05;;;;;;;6.30;3.70;;;;;;;;;;110647;1252;32437;-38
2022/07/30 12:52:38;;;;;;;7.10;3.70;;;;;;;;;;110670;1252;34253;-38
2022/07/30 12:55:14;;;;;;;6.50;3.70;;;;;;;;;;110633;1253;32846;-36
2022/07/30 12:57:59;;;;;;;5.60;3.30;;;;;;;;;;110644;1246;34183;-36
2022/07/30 13:00:34;;;;;;;6.20;3.40;;;;;;;;;;110666;1252;32534;-36
2022/07/30 13:03:23;;;;;;;6.90;3.90;;;;;;;;;;110651;1252;33241;-38
2022/07/30 13:06:00;;;;;;;6.90;3.90;;;;;;;;;;110656;1251;33781;-37
2022/07/30 13:08:51;;;;;;;6.10;3.80;;;;;;;;;;110649;1252;33590;-37
2022/07/30 13:11:36;;;;;;;6.50;3.80;;;;;;;;;;110641;1244;33806;-37
2022/07/30 13:14:11;;;;;;;7.80;4.30;;;;;;;;;;110635;1247;32636;-37
2022/07/30 13:16:44;;;;;;;6.30;4.00;;;;;;;;;;110625;1244;33665;-37
2022/07/30 13:19:16;;;;;;;6.00;3.80;;;;;;;;;;110663;1252;34604;-37
2022/07/30 13:21:49;;;;;;;6.80;4.60;;;;;;;;;;110628;1252;33925;-37
2022/07/30 13:24:21;;;;;;;6.50;3.80;;;;;;;;;;110473;1244;32949;-39
2022/07/30 13:26:57;;;;;;;5.70;4.10;;;;;;;;;;110651;1252;34294;-38
2022/07/30 13:29:29;;;;;;;6.80;4.00;;;;;;;;;;110658;1252;34418;-38
2022/07/30 13:32:02;;;;;;;6.70;4.60;;;;;;;;;;110631;1252;33680;-37
2022/07/30 13:34:35;;;;;;;7.40;4.30;;;;;;;;;;110663;1252;33756;-38
2022/07/30 13:37:10;;;;;;;8.50;4.10;;;;;;;;;;110627;1252;32824;-41
2022/07/30 13:39:45;;;;;;;6.90;4.40;;;;;;;;;;110629;1252;34020;-36
2022/07/30 13:42:24;;;;;;;6.90;4.20;;;;;;;;;;110637;1244;33435;-36
2022/07/30 13:44:57;;;;;;;8.90;5.00;;;;;;;;;;110657;1252;33853;-36
2022/07/30 13:47:32;;;;;;;8.70;5.10;;;;;;;;;;110633;1251;34012;-35
2022/07/30 13:50:05;;;;;;;8.10;4.60;;;;;;;;;;110631;1244;34962;-37
2022/07/30 13:52:37;;;;;;;7.50;4.90;;;;;;;;;;110681;1244;33906;-36
2022/07/30 13:55:12;;;;;;;9.50;5.30;;;;;;;;;;110699;1252;34196;-37
2022/07/30 13:57:44;;;;;;;11.20;5.80;;;;;;;;;;110473;1252;34201;-37
2022/07/30 14:00:18;;;;;;;10.50;6.50;;;;;;;;;;110665;1251;33002;-38
2022/07/30 14:02:50;;;;;;;12.90;7.30;;;;;;;;;;110554;1246;34113;-38
2022/07/30 14:05:22;;;;;;;11.10;6.80;;;;;;;;;;110671;1247;34328;-38
2022/07/30 14:07:55;;;;;;;12.30;7.70;;;;;;;;;;110668;1252;34674;-38
2022/07/30 14:10:30;;;;;;;11.70;7.10;;;;;;;;;;110625;1252;34765;-36
2022/07/30 14:13:03;;;;;;;10.80;7.60;;;;;;;;;;110639;1252;34051;-37
2022/07/30 14:15:40;;;;;;;10.30;6.80;;;;;;;;;;110700;1253;34748;-37
2022/07/30 14:18:12;;;;;;;12.60;7.10;;;;;;;;;;110654;1253;34707;-37
2022/07/30 14:20:45;;;;;;;12.40;6.80;;;;;;;;;;110580;1247;34780;-43
2022/07/30 14:23:16;;;;;;;;;;;;;;;;;;110754;1251;34762;-46
2022/07/30 14:25:49;;;;;;;9.90;6.40;;;;;;;;;;110701;1251;34189;-41
2022/07/30 14:28:21;;;;;;;10.50;6.50;;;;;;;;;;110609;1246;32957;-42
2022/07/30 14:30:54;;;;;;;10.70;6.50;;;;;;;;;;110623;1247;34636;-41
2022/07/30 14:33:28;;;;;;;9.90;5.80;;;;;;;;;;110621;1253;34539;-38
2022/07/30 14:36:01;;;;;;;10.60;5.90;;;;;;;;;;110511;1248;33536;-39
2022/07/30 14:38:33;;;;;;;9.70;6.00;;;;;;;;;;110660;1247;34618;-37
2022/07/30 14:41:11;;;;;;;11.10;5.80;;;;;;;;;;110615;1246;34742;-39
2022/07/30 14:43:44;;;;;;;10.50;6.10;;;;;;;;;;110604;1248;34074;-39
2022/07/30 14:46:17;;;;;;;9.40;6.00;;;;;;;;;;110622;1247;35297;-38
2022/07/30 14:48:49;;;;;;;9.70;5.80;;;;;;;;;;110627;1253;33362;-43
2022/07/30 14:51:21;;;;;;;10.00;6.30;;;;;;;;;;110612;1253;34392;-31
2022/07/30 14:53:53;;;;;;;9.70;5.90;;;;;;;;;;110612;1252;35160;-32
2022/07/30 14:56:25;;;;;;;10.30;5.80;;;;;;;;;;110608;1253;35045;-35
2022/07/30 14:58:57;;;;;;;8.10;5.40;;;;;;;;;;110658;1248;34906;-34
2022/07/30 15:01:29;;;;;;;9.20;6.40;;;;;;;;;;110658;1252;34166;-33
2022/07/30 15:04:01;;;;;;;8.90;5.30;;;;;;;;;;110612;1252;35033;-35
2022/07/30 15:06:33;;;;;;;10.70;6.00;;;;;;;;;;110525;1253;34749;-39
2022/07/30 15:09:05;;;;;;;10.70;6.10;;;;;;;;;;110679;1253;35320;-34
2022/07/30 15:11:38;;;;;;;8.90;5.30;;;;;;;;;;110672;1253;35067;-34
2022/07/30 15:14:13;;;;;;;9.70;5.90;;;;;;;;;;110503;1253;34244;-33
2022/07/30 15:16:48;;;;;;;10.00;5.60;;;;;;;;;;110603;1253;34058;-33
2022/07/30 15:19:20;;;;;;;8.90;5.80;;;;;;;;;;110450;1247;35107;-32
2022/07/30 15:21:55;;;;;;;9.80;5.40;;;;;;;;;;110460;1253;36006;-32
2022/07/30 15:24:28;;;;;;;11.30;6.00;;;;;;;;;;110433;1253;36041;-34